createdAt,value
2019-05-07T00:01:52.639Z,3.10
2019-05-07T00:04:22.399Z,3.00
2019-05-07T00:06:52.620Z,3.10
2019-05-07T00:09:23.081Z,3.10
2019-05-07T00:11:53.171Z,3.10
2019-05-07T00:14:23.064Z,3.10
2019-05-07T00:16:53.458Z,3.00
2019-05-07T00:19:23.106Z,3.00
2019-05-07T00:21:52.749Z,3.00
2019-05-07T00:24:22.366Z,3.00
2019-05-07T00:26:53.058Z,3.00
2019-05-07T00:29:22.379Z,2.90
2019-05-07T00:31:52.094Z,3.00
2019-05-07T00:34:22.395Z,3.00
2019-05-07T00:37:07.401Z,3.00
2019-05-07T00:39:43.329Z,3.00
2019-05-07T00:42:13.503Z,3.00
2019-05-07T00:45:13.150Z,2.90
2019-05-07T00:47:28.506Z,2.90
2019-05-07T00:49:58.579Z,2.90
2019-05-07T00:52:27.092Z,2.90
2019-05-07T00:54:55.574Z,2.90
2019-05-07T00:57:24.077Z,2.90
2019-05-07T00:59:52.659Z,2.90
2019-05-07T01:02:22.651Z,2.90
2019-05-07T01:04:53.024Z,2.90
2019-05-07T01:07:22.971Z,2.90
2019-05-07T01:09:52.363Z,2.90
2019-05-07T01:12:22.175Z,2.80
2019-05-07T01:14:52.811Z,2.90
2019-05-07T01:17:22.690Z,2.90
2019-05-07T01:19:53.246Z,3.00
2019-05-07T01:22:22.214Z,3.10
2019-05-07T01:24:52.544Z,3.10
2019-05-07T01:27:22.610Z,3.00
2019-05-07T01:29:52.824Z,2.90
2019-05-07T01:32:38.023Z,2.90
2019-05-07T01:35:12.995Z,2.80
2019-05-07T01:37:42.178Z,2.80
2019-05-07T01:40:12.272Z,2.90
2019-05-07T01:42:42.360Z,2.90
2019-05-07T01:45:12.953Z,2.90
2019-05-07T01:47:42.475Z,2.80
2019-05-07T01:50:13.228Z,2.90
2019-05-07T01:52:42.704Z,2.80
2019-05-07T01:55:12.979Z,2.80
2019-05-07T01:57:42.134Z,2.80
2019-05-07T02:00:13.051Z,2.80
2019-05-07T02:02:54.906Z,2.70
2019-05-07T02:05:33.864Z,2.80
2019-05-07T02:08:07.023Z,2.70
2019-05-07T02:10:37.115Z,2.70
2019-05-07T02:13:05.551Z,2.80
2019-05-07T02:15:33.999Z,2.80
2019-05-07T02:18:02.456Z,2.70
2019-05-07T02:20:32.255Z,2.70
2019-05-07T02:23:02.700Z,2.70
2019-05-07T02:25:32.720Z,2.60
2019-05-07T02:28:02.168Z,2.60
2019-05-07T02:30:34.561Z,2.60
2019-05-07T02:33:03.799Z,2.60
2019-05-07T02:35:33.376Z,2.60
2019-05-07T02:38:14.969Z,2.60
2019-05-07T02:40:47.943Z,2.50
2019-05-07T02:43:16.402Z,2.50
2019-05-07T02:45:49.251Z,2.50
2019-05-07T02:48:19.339Z,2.40
2019-05-07T02:50:49.435Z,2.40
2019-05-07T02:53:19.515Z,2.30
2019-05-07T02:55:52.666Z,2.20
2019-05-07T02:58:19.779Z,2.10
2019-05-07T03:00:48.252Z,2.00
2019-05-07T03:03:16.682Z,1.80
2019-05-07T03:05:45.216Z,1.80
2019-05-07T03:08:13.813Z,1.70
2019-05-07T03:10:43.482Z,1.70
2019-05-07T03:13:13.707Z,1.60
2019-05-07T03:15:43.633Z,1.60
2019-05-07T03:18:13.769Z,1.60
2019-05-07T03:20:59.250Z,1.70
2019-05-07T03:23:29.327Z,1.80
2019-05-07T03:26:04.167Z,1.70
2019-05-07T03:28:33.962Z,1.70
2019-05-07T03:31:17.055Z,1.80
2019-05-07T03:33:55.218Z,1.70
2019-05-07T03:36:26.175Z,1.60
2019-05-07T03:38:53.764Z,1.60
2019-05-07T03:41:24.042Z,1.60
2019-05-07T03:43:52.763Z,1.60
2019-05-07T03:46:23.514Z,1.60
2019-05-07T03:48:53.189Z,1.60
2019-05-07T03:51:23.796Z,1.70
2019-05-07T03:53:53.666Z,1.70
2019-05-07T03:56:23.606Z,1.70
2019-05-07T03:58:52.955Z,1.70
2019-05-07T04:01:24.089Z,1.80
2019-05-07T04:03:53.301Z,1.80
2019-05-07T04:06:23.347Z,1.80
2019-05-07T04:08:53.195Z,1.90
2019-05-07T04:11:23.073Z,1.90
2019-05-07T04:13:53.559Z,1.90
2019-05-07T04:16:24.019Z,2.00
2019-05-07T04:18:53.146Z,2.10
2019-05-07T04:21:23.223Z,2.20
2019-05-07T04:23:54.136Z,2.20
2019-05-07T04:26:33.601Z,2.20
2019-05-07T04:29:05.607Z,2.20
2019-05-07T04:31:34.638Z,2.20
2019-05-07T04:34:04.862Z,2.30
2019-05-07T04:36:34.522Z,2.40
2019-05-07T04:39:03.403Z,2.50
2019-05-07T04:41:32.934Z,2.50
2019-05-07T04:44:03.686Z,2.50
2019-05-07T04:46:33.314Z,2.50
2019-05-07T04:49:03.678Z,2.60
2019-05-07T04:51:43.123Z,2.60
2019-05-07T04:54:13.213Z,2.60
2019-05-07T04:56:43.350Z,2.60
2019-05-07T04:59:13.160Z,2.60
2019-05-07T05:01:43.643Z,2.60
2019-05-07T05:04:25.329Z,2.60
2019-05-07T05:06:42.534Z,2.60
2019-05-07T05:09:12.581Z,2.70
2019-05-07T05:11:43.679Z,2.80
2019-05-07T05:14:13.609Z,2.80
2019-05-07T05:16:42.502Z,2.80
2019-05-07T05:19:12.618Z,2.80
2019-05-07T05:21:58.623Z,2.80
2019-05-07T05:24:32.959Z,2.90
2019-05-07T05:27:02.576Z,3.10
2019-05-07T05:29:32.354Z,3.20
2019-05-07T05:32:02.341Z,3.20
2019-05-07T05:34:32.798Z,3.30
2019-05-07T05:37:02.470Z,3.40
2019-05-07T05:39:32.058Z,3.40
2019-05-07T05:42:02.534Z,3.40
2019-05-07T05:44:32.917Z,3.40
2019-05-07T05:47:02.407Z,3.60
2019-05-07T05:49:32.203Z,3.70
2019-05-07T05:52:12.449Z,3.70
2019-05-07T05:54:48.302Z,3.90
2019-05-07T05:57:24.078Z,4.10
2019-05-07T05:59:55.394Z,4.10
2019-05-07T06:02:44.075Z,4.20
2019-05-07T06:05:33.882Z,4.30
2019-05-07T06:08:03.682Z,4.40
2019-05-07T06:10:33.942Z,4.50
2019-05-07T06:13:07.110Z,4.60
2019-05-07T06:15:53.522Z,4.50
2019-05-07T06:18:41.825Z,4.30
2019-05-07T06:21:26.779Z,4.30
2019-05-07T06:24:05.564Z,4.30
2019-05-07T06:26:34.067Z,4.40
2019-05-07T06:29:02.553Z,4.50
2019-05-07T06:31:32.708Z,4.50
2019-05-07T06:34:01.856Z,4.50
2019-05-07T06:36:32.885Z,4.40
2019-05-07T06:39:22.131Z,4.40
2019-05-07T06:42:07.313Z,4.70
2019-05-07T06:44:36.334Z,4.90
2019-05-07T06:47:04.866Z,5.10
2019-05-07T06:49:33.382Z,5.30
2019-05-07T06:52:03.049Z,5.40
2019-05-07T06:54:32.182Z,5.50
2019-05-07T06:57:02.033Z,5.70
2019-05-07T06:59:37.906Z,5.80
2019-05-07T07:02:22.690Z,6.00
2019-05-07T07:04:52.850Z,6.20
2019-05-07T07:07:30.971Z,6.30
2019-05-07T07:10:02.699Z,6.50
2019-05-07T07:12:33.223Z,6.70
2019-05-07T07:15:02.735Z,6.60
2019-05-07T07:17:32.690Z,6.50
2019-05-07T07:20:02.153Z,6.60
2019-05-07T07:22:31.963Z,6.60
2019-05-07T07:25:02.571Z,6.80
2019-05-07T07:27:32.239Z,6.60
2019-05-07T07:30:02.550Z,6.60
2019-05-07T07:32:35.331Z,6.70
2019-05-07T07:35:05.394Z,6.70
2019-05-07T07:37:35.479Z,6.50
2019-05-07T07:40:08.318Z,6.30
2019-05-07T07:42:36.763Z,6.30
2019-05-07T07:45:18.810Z,6.30
2019-05-07T07:47:47.687Z,6.10
2019-05-07T07:50:16.584Z,5.90
2019-05-07T07:52:45.258Z,5.90
2019-05-07T07:55:15.336Z,5.90
2019-05-07T07:57:45.406Z,6.00
2019-05-07T08:00:18.372Z,6.20
2019-05-07T08:02:48.650Z,6.30
2019-05-07T08:05:17.109Z,6.50
2019-05-07T08:07:45.568Z,6.60
2019-05-07T08:10:14.227Z,6.80
2019-05-07T08:12:42.674Z,7.10
2019-05-07T08:15:18.096Z,7.40
2019-05-07T08:17:41.953Z,7.80
2019-05-07T08:20:12.636Z,8.00
2019-05-07T08:22:42.340Z,8.10
2019-05-07T08:25:12.518Z,7.80
2019-05-07T08:27:41.995Z,8.10
2019-05-07T08:30:12.734Z,8.40
2019-05-07T08:32:45.767Z,8.60
2019-05-07T08:35:15.922Z,8.40
2019-05-07T08:37:44.395Z,8.70
2019-05-07T08:40:12.980Z,8.70
2019-05-07T08:42:41.925Z,8.90
2019-05-07T08:45:28.977Z,8.20
2019-05-07T08:48:07.971Z,8.00
2019-05-07T08:50:36.407Z,8.30
2019-05-07T08:53:04.875Z,8.20
2019-05-07T08:55:33.366Z,8.20
2019-05-07T08:58:02.312Z,8.40
2019-05-07T09:00:32.608Z,8.20
2019-05-07T09:03:01.680Z,8.50
2019-05-07T09:05:32.199Z,8.50
2019-05-07T09:08:02.287Z,8.40
2019-05-07T09:10:32.460Z,8.20
2019-05-07T09:13:02.596Z,8.10
2019-05-07T09:15:32.027Z,8.20
2019-05-07T09:18:02.000Z,8.50
2019-05-07T09:20:32.168Z,8.90
2019-05-07T09:23:02.156Z,9.20
2019-05-07T09:25:32.543Z,9.70
2019-05-07T09:28:02.648Z,10.10
2019-05-07T09:30:52.282Z,10.80
2019-05-07T09:33:25.207Z,11.30
2019-05-07T09:35:54.186Z,11.50
2019-05-07T09:38:22.638Z,11.40
2019-05-07T09:40:52.487Z,11.30
2019-05-07T09:43:22.031Z,11.50
2019-05-07T09:45:52.343Z,11.40
2019-05-07T09:48:22.168Z,11.20
2019-05-07T09:50:52.908Z,11.20
2019-05-07T09:53:22.718Z,10.60
2019-05-07T09:55:51.649Z,10.30
2019-05-07T09:58:34.954Z,9.80
2019-05-07T10:00:50.705Z,8.60
2019-05-07T10:03:19.190Z,7.60
2019-05-07T10:05:47.646Z,7.20
2019-05-07T10:08:16.151Z,6.90
2019-05-07T10:10:46.553Z,6.70
2019-05-07T10:13:16.734Z,6.60
2019-05-07T10:15:45.285Z,6.50
2019-05-07T10:18:15.064Z,6.60
2019-05-07T10:20:43.989Z,6.60
2019-05-07T10:23:22.776Z,6.70
2019-05-07T10:25:52.907Z,6.70
2019-05-07T10:28:22.715Z,6.90
2019-05-07T10:30:52.182Z,7.20
2019-05-07T10:33:22.815Z,7.30
2019-05-07T10:35:52.966Z,7.10
2019-05-07T10:38:21.824Z,7.00
2019-05-07T10:40:50.418Z,6.80
2019-05-07T10:43:19.000Z,6.70
2019-05-07T10:45:49.166Z,6.70
2019-05-07T10:48:25.104Z,6.80
2019-05-07T10:50:55.194Z,6.80
2019-05-07T10:53:23.727Z,6.90
2019-05-07T10:55:52.161Z,6.80
2019-05-07T10:58:20.614Z,6.90
2019-05-07T11:00:49.126Z,6.90
2019-05-07T11:03:17.670Z,6.70
2019-05-07T11:05:46.184Z,6.70
2019-05-07T11:08:14.861Z,6.50
2019-05-07T11:10:43.634Z,6.10
2019-05-07T11:13:12.951Z,6.00
2019-05-07T11:15:43.327Z,5.90
2019-05-07T11:18:13.767Z,5.90
2019-05-07T11:20:49.798Z,6.20
2019-05-07T11:23:12.955Z,6.50
2019-05-07T11:25:42.140Z,6.80
2019-05-07T11:28:12.367Z,7.10
2019-05-07T11:30:42.536Z,7.40
2019-05-07T11:33:12.830Z,7.30
2019-05-07T11:35:42.291Z,7.30
2019-05-07T11:38:18.783Z,7.40
2019-05-07T11:40:42.793Z,7.40
2019-05-07T11:43:22.132Z,7.30
2019-05-07T11:45:54.230Z,7.50
2019-05-07T11:48:24.363Z,8.00
2019-05-07T11:51:04.302Z,8.30
2019-05-07T11:53:34.472Z,8.10
2019-05-07T11:56:03.118Z,7.90
2019-05-07T11:58:32.512Z,7.60
2019-05-07T12:01:03.960Z,7.50
2019-05-07T12:03:32.691Z,7.70
2019-05-07T12:06:02.043Z,7.90
2019-05-07T12:08:39.408Z,8.00
2019-05-07T12:11:02.324Z,8.30
2019-05-07T12:13:32.303Z,8.10
2019-05-07T12:16:02.987Z,8.00
2019-05-07T12:18:32.004Z,8.30
2019-05-07T12:21:03.880Z,8.60
2019-05-07T12:23:33.016Z,9.20
2019-05-07T12:26:02.270Z,9.60
2019-05-07T12:28:32.874Z,9.90
2019-05-07T12:31:17.776Z,10.10
2019-05-07T12:33:59.722Z,10.20
2019-05-07T12:36:28.186Z,10.20
2019-05-07T12:38:56.630Z,10.30
2019-05-07T12:41:34.345Z,10.20
2019-05-07T12:44:06.056Z,9.90
2019-05-07T12:46:35.361Z,10.00
2019-05-07T12:49:04.546Z,10.20
2019-05-07T12:51:37.816Z,10.50
2019-05-07T12:54:22.674Z,10.30
2019-05-07T12:56:52.012Z,10.10
2019-05-07T12:59:21.866Z,9.90
2019-05-07T13:02:18.307Z,9.80
2019-05-07T13:04:41.826Z,10.00
2019-05-07T13:07:23.818Z,10.30
2019-05-07T13:09:52.672Z,10.00
2019-05-07T13:12:21.743Z,9.80
2019-05-07T13:14:51.786Z,9.80
2019-05-07T13:17:22.431Z,9.90
2019-05-07T13:19:52.523Z,9.70
2019-05-07T13:22:21.970Z,9.20
2019-05-07T13:24:52.732Z,8.80
2019-05-07T13:27:21.598Z,8.60
2019-05-07T13:29:50.214Z,8.40
2019-05-07T13:32:20.203Z,8.40
2019-05-07T13:34:48.643Z,8.60
2019-05-07T13:37:18.995Z,8.50
2019-05-07T13:39:49.159Z,8.70
2019-05-07T13:42:35.378Z,8.70
2019-05-07T13:45:07.513Z,8.80
2019-05-07T13:47:36.787Z,8.90
2019-05-07T13:50:06.937Z,9.00
2019-05-07T13:52:35.419Z,9.30
2019-05-07T13:55:05.611Z,9.50
2019-05-07T13:57:34.144Z,9.70
2019-05-07T14:00:05.031Z,9.80
2019-05-07T14:02:33.612Z,9.80
2019-05-07T14:05:02.125Z,9.90
2019-05-07T14:07:32.351Z,9.90
2019-05-07T14:10:02.098Z,9.90
2019-05-07T14:12:33.487Z,10.10
2019-05-07T14:15:02.173Z,10.30
2019-05-07T14:17:30.718Z,10.10
2019-05-07T14:19:59.170Z,10.30
2019-05-07T14:22:27.961Z,10.30
2019-05-07T14:24:56.503Z,10.50
2019-05-07T14:27:24.938Z,10.60
2019-05-07T14:29:53.403Z,10.70
2019-05-07T14:32:23.474Z,10.60
2019-05-07T14:35:09.663Z,10.50
2019-05-07T14:37:41.724Z,10.70
2019-05-07T14:40:12.767Z,10.40
2019-05-07T14:42:52.523Z,10.60
2019-05-07T14:45:23.602Z,10.70
2019-05-07T14:47:52.214Z,10.80
2019-05-07T14:50:22.623Z,10.60
2019-05-07T14:52:54.801Z,10.60
2019-05-07T14:55:22.257Z,10.60
2019-05-07T14:57:52.420Z,10.60
2019-05-07T15:00:22.556Z,10.60
2019-05-07T15:02:52.535Z,10.30
2019-05-07T15:05:22.351Z,9.90
2019-05-07T15:07:51.350Z,9.90
2019-05-07T15:10:22.087Z,9.80
2019-05-07T15:12:52.033Z,9.60
2019-05-07T15:15:22.005Z,9.60
2019-05-07T15:17:55.141Z,9.70
2019-05-07T15:20:23.699Z,9.70
2019-05-07T15:23:11.978Z,9.50
2019-05-07T15:25:41.661Z,9.10
2019-05-07T15:28:12.140Z,9.30
2019-05-07T15:30:54.290Z,9.40
2019-05-07T15:33:22.816Z,9.60
2019-05-07T15:35:52.035Z,10.00
2019-05-07T15:38:21.719Z,10.30
2019-05-07T15:40:51.916Z,10.40
2019-05-07T15:43:20.611Z,10.40
2019-05-07T15:45:52.320Z,10.30
2019-05-07T15:48:22.023Z,10.10
2019-05-07T15:50:51.990Z,9.90
2019-05-07T15:53:37.118Z,9.80
2019-05-07T15:56:05.585Z,9.70
2019-05-07T15:58:34.186Z,9.70
2019-05-07T16:01:02.634Z,9.60
2019-05-07T16:03:32.730Z,9.60
2019-05-07T16:06:03.507Z,9.70
2019-05-07T16:08:33.006Z,9.80
2019-05-07T16:11:03.496Z,9.60
2019-05-07T16:13:33.341Z,9.40
2019-05-07T16:16:02.395Z,9.20
2019-05-07T16:18:35.699Z,9.20
2019-05-07T16:21:05.046Z,9.10
2019-05-07T16:23:33.683Z,8.90
2019-05-07T16:26:02.460Z,8.80
2019-05-07T16:28:32.495Z,8.70
2019-05-07T16:31:02.571Z,8.50
2019-05-07T16:33:32.026Z,8.40
2019-05-07T16:36:02.147Z,8.40
2019-05-07T16:38:32.655Z,8.40
2019-05-07T16:41:00.994Z,8.50
2019-05-07T16:43:29.445Z,8.60
2019-05-07T16:45:57.907Z,8.60
2019-05-07T16:48:26.470Z,8.60
2019-05-07T16:50:55.870Z,8.60
2019-05-07T16:53:29.294Z,8.80
2019-05-07T16:55:54.582Z,8.80
2019-05-07T16:58:24.682Z,8.90
2019-05-07T17:00:54.787Z,8.90
2019-05-07T17:03:31.886Z,8.90
2019-05-07T17:06:01.811Z,9.00
2019-05-07T17:08:32.100Z,9.00
2019-05-07T17:11:00.567Z,9.00
2019-05-07T17:13:29.085Z,9.10
2019-05-07T17:15:58.589Z,8.90
2019-05-07T17:18:27.790Z,8.70
2019-05-07T17:20:56.930Z,8.50
2019-05-07T17:23:25.726Z,8.50
2019-05-07T17:25:54.497Z,8.40
2019-05-07T17:28:23.025Z,8.40
2019-05-07T17:30:52.460Z,8.30
2019-05-07T17:33:23.003Z,8.30
2019-05-07T17:35:51.872Z,8.40
2019-05-07T17:38:22.804Z,8.40
2019-05-07T17:40:52.197Z,8.40
2019-05-07T17:43:21.939Z,8.60
2019-05-07T17:45:52.251Z,8.60
2019-05-07T17:48:23.010Z,8.60
2019-05-07T17:50:58.310Z,8.80
2019-05-07T17:53:27.015Z,9.10
2019-05-07T17:55:55.687Z,9.40
2019-05-07T17:58:24.298Z,9.60
2019-05-07T18:00:54.605Z,9.40
2019-05-07T18:03:32.221Z,9.20
2019-05-07T18:06:02.283Z,9.00
2019-05-07T18:08:32.514Z,8.70
2019-05-07T18:11:02.405Z,8.50
2019-05-07T18:13:32.385Z,8.20
2019-05-07T18:16:03.126Z,8.00
2019-05-07T18:18:32.809Z,7.80
2019-05-07T18:21:02.319Z,7.60
2019-05-07T18:23:32.066Z,7.50
2019-05-07T18:26:00.970Z,7.30
2019-05-07T18:28:29.545Z,7.10
2019-05-07T18:30:58.830Z,6.90
2019-05-07T18:33:34.686Z,6.80
2019-05-07T18:36:03.237Z,6.60
2019-05-07T18:38:32.937Z,6.50
2019-05-07T18:41:02.618Z,6.30
2019-05-07T18:43:33.208Z,6.10
2019-05-07T18:46:02.317Z,6.00
2019-05-07T18:48:31.052Z,5.90
2019-05-07T18:50:59.507Z,5.80
2019-05-07T18:53:27.958Z,5.70
2019-05-07T18:55:56.554Z,5.60
2019-05-07T18:58:25.079Z,5.50
2019-05-07T19:01:02.652Z,5.40
2019-05-07T19:03:32.513Z,5.30
2019-05-07T19:06:02.818Z,5.20
2019-05-07T19:08:32.663Z,5.10
2019-05-07T19:11:01.712Z,5.10
2019-05-07T19:13:32.470Z,5.00
2019-05-07T19:16:00.345Z,4.90
2019-05-07T19:18:28.867Z,4.80
2019-05-07T19:20:57.311Z,4.70
2019-05-07T19:23:25.762Z,4.70
2019-05-07T19:25:54.285Z,4.70
2019-05-07T19:28:22.738Z,4.60
2019-05-07T19:30:52.822Z,4.60
2019-05-07T19:33:26.474Z,4.50
2019-05-07T19:35:52.847Z,4.50
2019-05-07T19:38:21.506Z,4.40
2019-05-07T19:40:50.014Z,4.40
2019-05-07T19:43:18.477Z,4.40
2019-05-07T19:45:47.065Z,4.40
2019-05-07T19:48:15.508Z,4.50
2019-05-07T19:50:43.959Z,4.60
2019-05-07T19:53:12.609Z,4.70
2019-05-07T19:55:59.206Z,4.80
2019-05-07T19:58:27.634Z,4.80
2019-05-07T20:00:57.308Z,4.80
2019-05-07T20:03:25.920Z,4.80
2019-05-07T20:05:54.372Z,4.80
2019-05-07T20:08:22.970Z,4.80
2019-05-07T20:10:55.768Z,4.80
2019-05-07T20:13:26.964Z,4.90
2019-05-07T20:15:56.090Z,4.80
2019-05-07T20:18:24.538Z,4.70
2019-05-07T20:20:53.000Z,4.70
2019-05-07T20:23:22.795Z,4.70
2019-05-07T20:25:52.841Z,4.80
2019-05-07T20:28:21.831Z,4.80
2019-05-07T20:30:52.586Z,5.00
2019-05-07T20:33:21.972Z,5.00
2019-05-07T20:35:52.687Z,5.10
2019-05-07T20:38:20.742Z,5.10
2019-05-07T20:40:49.197Z,5.20
2019-05-07T20:43:17.690Z,5.10
2019-05-07T20:45:46.144Z,5.10
2019-05-07T20:48:14.679Z,5.00
2019-05-07T20:50:43.118Z,4.90
2019-05-07T20:53:11.584Z,4.80
2019-05-07T20:55:47.589Z,4.70
2019-05-07T20:58:16.074Z,4.50
2019-05-07T21:00:44.814Z,4.40
2019-05-07T21:03:19.282Z,4.30
2019-05-07T21:05:52.972Z,4.20
2019-05-07T21:08:22.700Z,4.10
2019-05-07T21:10:53.570Z,4.00
2019-05-07T21:13:30.196Z,4.00
2019-05-07T21:15:52.716Z,3.90
2019-05-07T21:18:23.262Z,3.90
2019-05-07T21:20:53.003Z,3.90
2019-05-07T21:23:23.092Z,4.10
2019-05-07T21:25:52.735Z,4.10
2019-05-07T21:28:22.476Z,4.10
2019-05-07T21:30:52.171Z,4.00
2019-05-07T21:33:22.847Z,3.90
2019-05-07T21:35:52.359Z,3.70
2019-05-07T21:38:22.298Z,3.60
2019-05-07T21:40:51.082Z,3.70
2019-05-07T21:43:21.869Z,3.70
2019-05-07T21:45:49.772Z,3.60
2019-05-07T21:48:18.213Z,3.40
2019-05-07T21:50:46.664Z,3.40
2019-05-07T21:53:19.681Z,3.30
2019-05-07T21:55:59.866Z,3.20
2019-05-07T21:58:39.742Z,3.10
2019-05-07T22:01:12.662Z,2.90
2019-05-07T22:03:43.190Z,2.70
2019-05-07T22:06:12.871Z,2.60
2019-05-07T22:08:41.627Z,2.50
2019-05-07T22:11:12.385Z,2.40
2019-05-07T22:13:43.537Z,2.10
2019-05-07T22:16:13.062Z,2.10
2019-05-07T22:18:42.689Z,2.00
2019-05-07T22:21:12.496Z,2.00
2019-05-07T22:23:42.856Z,1.90
2019-05-07T22:26:20.131Z,1.70
2019-05-07T22:28:42.022Z,1.70
2019-05-07T22:31:14.906Z,1.70
2019-05-07T22:33:44.999Z,1.60
2019-05-07T22:36:13.441Z,1.50
2019-05-07T22:38:41.900Z,1.50
2019-05-07T22:41:12.689Z,1.40
2019-05-07T22:43:42.387Z,1.40
2019-05-07T22:46:12.487Z,1.30
2019-05-07T22:48:41.918Z,1.20
2019-05-07T22:51:12.209Z,1.10
2019-05-07T22:53:40.771Z,1.10
2019-05-07T22:56:09.216Z,1.10
2019-05-07T22:58:42.071Z,1.10
2019-05-07T23:01:13.057Z,1.10
2019-05-07T23:03:43.029Z,1.20
2019-05-07T23:06:12.316Z,1.10
2019-05-07T23:08:42.411Z,1.10
2019-05-07T23:11:12.261Z,1.00
2019-05-07T23:13:42.795Z,0.90
2019-05-07T23:16:12.537Z,1.00
2019-05-07T23:18:42.877Z,1.10
2019-05-07T23:21:11.378Z,1.10
2019-05-07T23:23:42.128Z,1.10
2019-05-07T23:26:12.199Z,1.10
2019-05-07T23:28:41.850Z,1.20
2019-05-07T23:31:12.159Z,1.30
2019-05-07T23:33:40.793Z,1.20
2019-05-07T23:36:09.242Z,1.20
2019-05-07T23:38:37.731Z,1.30
2019-05-07T23:41:16.958Z,1.40
2019-05-07T23:43:47.029Z,1.70
2019-05-07T23:46:15.490Z,1.90
2019-05-07T23:48:44.014Z,2.10
2019-05-07T23:51:12.666Z,2.40
2019-05-07T23:53:44.166Z,2.70
2019-05-07T23:56:13.109Z,3.00
2019-05-07T23:58:42.037Z,3.20
